General Rodolfo Sanchez Taboada International Airport
MMML : now visible

Airfield :











YOU CAN JOIN US ON...

 
LOGIN :

Register | Disclaimer

   EN    FR    IT 

 









Legend :    VFR   Marginal VFR   IFR   Intensive IFR   Very Intensive IFR
Visi :
Ceiling :
>= 8 km
>= 3000ft
5 to 8 km
1000 to 3000 ft
1500m to 5 km
500 to 1000 ft
800 to 1500m
200 to 500 ft
< 800m
< 200 ft
Symbols :   Thunderstorms  Fog  Heavy snow  Heavy precipitations  Wind > 20 kt






- Airport Elevation : 74 ft
- IATA code : MXL


MMML - General Rodolfo Sanchez Taboada International

METAR N/A
TAF TAF MMML
Valid from the 10 at 06:00 until the 11 at 06:00 UTC


100506Z 1006/1106 00000KT P6SM BKN060
FM100900 34015KT 5SM HZ BKN020 BKN060
TEMPO 1010/1014 5SM RA BKN015 OVC060
FM101600 34015KT P6SM BKN020 OVC070
TEMPO 1020/1024 5SM RA



MET'MAP, your aeronautical weather chart ! - Copyright ORBIFLY December 2007 - Disclaimer

ORBIFLY MET'MAP TEAM :

Programming & Development : Alexandra Zaïnal
Concept & original design : Baudouin d'Aumeries
Assistance for programming : Marc-Olivier Méhu
Technical & hardware support : Manuel Goepfert

Contact : metmap@orbifly.com




SOURCES & CREDITS :

   NOAA       Earth
Advisory